Terminal Aerodrome Forecast
Issued by NWS

Home | Current Version | Previous Version | Text Only | Print | Product List | Glossary On
Versions: 1 2 3 4 5 6 7 8 9 10 11 12 13 14 15 16 17 18 19 20 21 22 23
000
FTUS45 KLKN 191720
TAFWMC
TAF
KWMC 191720Z 1918/2018 17009KT P6SM VCSH SCT030 OVC050
      TEMPO 1918/1919 -SHRA OVC020
     FM191900 18006KT P6SM -SHRASN OVC025
     FM200300 VRB05KT P6SM VCSH SCT025 BKN050
     FM201700 18010G15KT P6SM VCSH OVC035=

USA.gov is the U.S. government's official web portal to all federal, state and local government web resources and services.